sim
Sign-in with your pilot id or email,
or register
Callsign
Passwort

Schedule Details

Flight Number: OEO1515
Departure: Dortmund Airport (EDLW) at 13:15
Arrival: Munich Airport (EDDM) at 14:30

Weather Information
Getting current METAR information for EDLW 211850Z 12004KT CAVOK 19/09 Q1014
Getting current METAR information for EDDM 211850Z 23001KT CAVOK 14/12 Q1016 NOSIG

Schedule Frequency

Route Map